Fidelity, Illinois
Current Conditions -  °F | °C
As of 3:50 PM on Monday 20 Oct 2014 (Local Time) from KALN Reporting Station
Clear Clear  
Wind Chill: 72°   Ceiling: Unl
Heat Index: 72°   Visibility: 10mi
Dew Point: 37°   Wind: 12mph
Humidity: 29%   Direction: 270°W
Pressure: 29.94"   Gusts: NA
Location:  39.15°N, 90.16°W
Report Text: KALN 202050Z 27010KT 10SM SKC 22/03 A2994
Loading
Personal Weather Stations






























Interactive Weather Map
Tropical Storm Tracking
New forecast layout! Learn more

10-Day Weather Forecast

Advertisements
Track Severe Weather on mobile